Time;durP1;ratioP1;P1;durP2;ratioP2;P2;SDS_P1;SDS_P2;PMS_P1;PMS_P2;Temp;Humidity;BMP_temperature;BMP_pressure;BME280_temperature;BME280_humidity;BME280_pressure;Samples;Min_cycle;Max_cycle;Signal;HPM_P1;HPM_P2
2023/05/17 00:02:09;;;;;;;23.67;7.10;;;;;;;6.36;100.00;102332.72;5083983;28;20031;-67
2023/05/17 00:04:35;;;;;;;23.98;7.18;;;;;;;6.40;100.00;102334.66;5066500;28;20078;-67
2023/05/17 00:07:00;;;;;;;22.52;7.38;;;;;;;6.38;100.00;102333.69;5086234;28;20043;-68
2023/05/17 00:09:26;;;;;;;24.23;7.50;;;;;;;6.41;100.00;102327.69;5083172;28;20044;-68
2023/05/17 00:11:51;;;;;;;22.05;7.03;;;;;;;6.38;100.00;102335.44;5086642;28;20021;-67
2023/05/17 00:14:16;;;;;;;25.27;7.57;;;;;;;6.40;100.00;102346.91;5083802;28;20114;-66
2023/05/17 00:16:42;;;;;;;23.10;7.28;;;;;;;6.34;100.00;102346.63;5085227;28;20063;-68
2023/05/17 00:19:10;;;;;;;24.30;7.53;;;;;;;6.34;100.00;102347.53;5085160;28;20039;-68
2023/05/17 00:21:35;;;;;;;25.30;7.60;;;;;;;6.38;100.00;102344.22;5084034;28;20035;-68
2023/05/17 00:24:01;;;;;;;23.55;7.05;;;;;;;6.33;100.00;102345.72;5086188;28;20056;-68
2023/05/17 00:26:26;;;;;;;24.50;7.13;;;;;;;6.38;100.00;102341.59;5082873;28;20540;-68
2023/05/17 00:28:51;;;;;;;22.15;7.22;;;;;;;6.31;100.00;102338.63;5086561;28;20040;-68
2023/05/17 00:31:17;;;;;;;28.02;7.57;;;;;;;6.31;100.00;102346.50;5083568;28;20175;-70
2023/05/17 00:33:42;;;;;;;23.83;6.93;;;;;;;6.29;100.00;102338.50;5084737;28;20032;-69
2023/05/17 00:36:07;;;;;;;22.73;7.15;;;;;;;6.27;100.00;102346.31;5085079;28;20493;-69
2023/05/17 00:38:33;;;;;;;24.58;7.72;;;;;;;6.26;100.00;102335.75;5083424;28;20055;-69
2023/05/17 00:40:58;;;;;;;26.15;8.15;;;;;;;6.22;100.00;102341.72;5085911;28;20101;-69
2023/05/17 00:43:24;;;;;;;24.27;7.80;;;;;;;6.23;100.00;102343.50;5082875;28;20110;-69
2023/05/17 00:45:50;;;;;;;23.45;7.32;;;;;;;6.22;100.00;102334.72;5085317;28;20388;-69
2023/05/17 00:48:17;;;;;;;23.05;7.38;;;;;;;6.23;100.00;102331.28;5083635;28;20032;-70
2023/05/17 00:50:43;;;;;;;24.05;7.57;;;;;;;6.19;100.00;102331.03;5085721;28;20033;-69
2023/05/17 00:53:14;;;;;;;22.77;7.35;;;;;;;6.12;100.00;102335.13;5087606;28;20352;-70
2023/05/17 00:55:41;;;;;;;24.98;7.70;;;;;;;6.12;100.00;102343.00;5069197;28;20020;-70
2023/05/17 00:58:07;;;;;;;24.10;7.22;;;;;;;6.09;100.00;102341.13;5086663;28;20078;-70
2023/05/17 01:00:32;;;;;;;23.80;7.90;;;;;;;6.06;100.00;102334.84;5084487;28;20029;-70
2023/05/17 01:02:58;;;;;;;26.80;7.97;;;;;;;6.05;100.00;102336.56;5086626;28;20031;-70
2023/05/17 01:05:23;;;;;;;23.48;7.72;;;;;;;6.02;100.00;102328.53;5092742;28;20029;-69
2023/05/17 01:07:48;;;;;;;24.67;8.20;;;;;;;6.00;100.00;102335.47;5093540;28;20055;-70
2023/05/17 01:10:14;;;;;;;24.70;7.75;;;;;;;6.00;100.00;102338.09;5067455;28;20055;-70
2023/05/17 01:13:04;;;;;;;23.90;7.88;;;;;;;5.98;100.00;102346.72;5098416;28;20039;-70
2023/05/17 01:15:37;;;;;;;24.70;8.07;;;;;;;5.98;100.00;102344.09;5100495;28;20039;-69
2023/05/17 01:18:16;;;;;;;24.48;8.07;;;;;;;5.98;100.00;102333.59;5107198;28;20004;-70
2023/05/17 01:20:46;;;;;;;25.90;8.50;;;;;;;5.96;100.00;102335.22;5106004;28;20025;-70
2023/05/17 01:23:30;;;;;;;27.00;8.50;;;;;;;5.90;100.00;102333.19;5105385;28;20111;-70
2023/05/17 01:26:15;;;;;;;24.52;7.97;;;;;;;5.86;100.00;102337.38;5099656;28;20043;-70
2023/05/17 01:28:45;;;;;;;26.52;8.40;;;;;;;5.84;100.00;102346.94;5103456;28;20031;-70
2023/05/17 01:31:11;;;;;;;26.05;8.20;;;;;;;5.86;100.00;102353.13;5092587;28;20032;-68
2023/05/17 01:33:37;;;;;;;22.23;7.78;;;;;;;5.91;100.00;102354.28;5083243;28;20032;-65
2023/05/17 01:36:03;;;;;;;25.48;8.35;;;;;;;5.97;100.00;102352.75;5084562;28;20031;-68
2023/05/17 01:38:28;;;;;;;23.13;7.93;;;;;;;6.00;100.00;102342.41;5081838;28;20032;-66
2023/05/17 01:41:15;;;;;;;26.50;8.35;;;;;;;5.88;100.00;102341.00;5085275;28;20394;-65
2023/05/17 01:43:52;;;;;;;25.20;8.40;;;;;;;5.91;100.00;102341.16;5081763;28;20052;-69
2023/05/17 01:46:23;;;;;;;25.38;8.80;;;;;;;5.98;100.00;102336.22;5082042;28;21114;-69
2023/05/17 01:48:55;;;;;;;28.75;9.13;;;;;;;5.95;100.00;102336.94;5084061;28;20047;-66
2023/05/17 01:51:27;;;;;;;27.10;8.43;;;;;;;5.90;100.00;102341.06;5081642;28;20036;-64
2023/05/17 01:54:00;;;;;;;27.35;8.98;;;;;;;5.93;100.00;102341.22;5084840;28;20024;-66
2023/05/17 01:56:33;;;;;;;25.98;8.75;;;;;;;5.94;100.00;102343.91;5077494;28;20024;-64
2023/05/17 01:58:58;;;;;;;;;;;;;;;5.89;100.00;102345.41;5078086;28;20029;-64
2023/05/17 02:01:27;;;;;;;25.00;8.73;;;;;;;5.96;100.00;102341.34;5077169;28;19923;-67
2023/05/17 02:03:52;;;;;;;25.67;9.35;;;;;;;5.88;100.00;102351.50;5084673;28;20031;-67
2023/05/17 02:06:18;;;;;;;25.38;8.68;;;;;;;5.87;100.00;102348.81;5081816;28;20090;-68
2023/05/17 02:08:43;;;;;;;25.48;9.38;;;;;;;5.84;100.00;102353.88;5065166;28;20036;-70
2023/05/17 02:11:09;;;;;;;26.05;9.30;;;;;;;5.84;100.00;102349.56;5082936;28;20060;-70
2023/05/17 02:13:34;;;;;;;26.92;9.63;;;;;;;5.78;100.00;102344.00;5082035;28;20107;-68
2023/05/17 02:16:01;;;;;;;26.88;9.52;;;;;;;5.79;100.00;102347.53;5084426;28;20162;-68
2023/05/17 02:18:26;;;;;;;25.75;9.05;;;;;;;5.73;100.00;102346.41;5080754;28;20539;-68
2023/05/17 02:20:52;;;;;;;27.88;9.95;;;;;;;5.71;100.00;102350.69;5083995;28;20107;-66
2023/05/17 02:23:17;;;;;;;26.50;9.60;;;;;;;5.68;100.00;102353.16;5081924;28;20021;-68
2023/05/17 02:25:42;;;;;;;27.30;9.68;;;;;;;5.67;100.00;102342.59;5081993;28;20151;-68
2023/05/17 02:28:08;;;;;;;28.70;10.43;;;;;;;5.70;100.00;102341.00;5083045;28;20028;-67
2023/05/17 02:30:33;;;;;;;28.15;9.90;;;;;;;5.71;100.00;102341.94;5081384;28;20037;-65
2023/05/17 02:32:58;;;;;;;27.83;10.07;;;;;;;5.66;100.00;102338.16;5084032;28;20028;-67
2023/05/17 02:35:24;;;;;;;27.92;10.30;;;;;;;5.68;100.00;102340.03;5076603;28;20029;-68
2023/05/17 02:37:49;;;;;;;28.23;10.70;;;;;;;5.72;100.00;102344.63;5083652;28;20059;-68
2023/05/17 02:40:15;;;;;;;29.63;10.70;;;;;;;5.76;100.00;102353.53;5082082;28;20028;-68
2023/05/17 02:42:40;;;;;;;29.63;10.55;;;;;;;5.74;100.00;102363.06;5082157;28;20031;-67
2023/05/17 02:45:06;;;;;;;27.90;10.30;;;;;;;5.74;100.00;102363.94;5083483;28;20028;-68
2023/05/17 02:47:31;;;;;;;26.15;10.40;;;;;;;5.78;100.00;102359.72;5080888;28;20096;-68
2023/05/17 02:49:57;;;;;;;29.88;10.40;;;;;;;5.85;100.00;102366.19;5065923;28;20028;-66
2023/05/17 02:52:22;;;;;;;29.17;10.52;;;;;;;5.97;100.00;102371.13;5080783;28;20464;-67
2023/05/17 02:54:47;;;;;;;27.38;11.25;;;;;;;6.04;100.00;102370.63;5083063;28;20071;-66
2023/05/17 02:57:13;;;;;;;28.55;10.45;;;;;;;6.13;100.00;102362.28;5082082;28;20027;-65
2023/05/17 02:59:38;;;;;;;29.77;11.68;;;;;;;6.20;100.00;102365.25;5081744;28;20029;-66
2023/05/17 03:02:04;;;;;;;27.50;10.48;;;;;;;6.32;100.00;102369.28;5065195;28;20035;-66
2023/05/17 03:04:29;;;;;;;28.80;11.05;;;;;;;6.37;100.00;102376.56;5080485;28;20039;-67
2023/05/17 03:06:55;;;;;;;28.48;10.80;;;;;;;6.42;100.00;102367.16;5083971;28;20028;-65
2023/05/17 03:09:20;;;;;;;29.90;10.52;;;;;;;6.50;100.00;102385.00;5080764;28;20021;-68
2023/05/17 03:11:46;;;;;;;27.77;11.10;;;;;;;6.51;100.00;102390.31;5082933;28;20025;-66
2023/05/17 03:14:12;;;;;;;27.75;10.35;;;;;;;6.56;100.00;102383.53;5081984;28;20123;-67
2023/05/17 03:16:37;;;;;;;29.15;10.88;;;;;;;6.59;100.00;102377.53;5063417;28;20545;-66
2023/05/17 03:19:03;;;;;;;28.92;10.55;;;;;;;6.68;100.00;102377.03;5083399;28;20024;-67
2023/05/17 03:21:28;;;;;;;27.75;9.82;;;;;;;6.71;100.00;102379.81;5080033;28;20117;-68
2023/05/17 03:23:53;;;;;;;27.92;9.73;;;;;;;6.74;100.00;102380.84;5083625;28;20379;-68
2023/05/17 03:26:19;;;;;;;27.27;9.57;;;;;;;6.76;100.00;102384.44;5081017;28;20483;-66
2023/05/17 03:28:44;;;;;;;27.55;9.68;;;;;;;6.83;100.00;102396.13;5082340;28;20293;-66
2023/05/17 03:31:10;;;;;;;29.42;10.10;;;;;;;6.89;100.00;102392.88;5082285;28;20050;-70
2023/05/17 03:33:36;;;;;;;26.30;9.88;;;;;;;6.92;100.00;102386.00;5080932;28;20032;-66
2023/05/17 03:36:02;;;;;;;29.70;9.95;;;;;;;6.91;100.00;102397.34;5084528;28;20150;-65
2023/05/17 03:38:27;;;;;;;28.52;9.35;;;;;;;6.94;100.00;102400.13;5084020;28;20025;-69
2023/05/17 03:40:53;;;;;;;27.92;9.55;;;;;;;6.96;100.00;102398.47;5086918;28;20032;-69
2023/05/17 03:43:19;;;;;;;25.98;9.85;;;;;;;6.95;100.00;102404.56;5084642;28;20051;-70
2023/05/17 03:45:44;;;;;;;29.17;9.68;;;;;;;6.98;100.00;102402.06;5067858;28;20078;-69
2023/05/17 03:48:10;;;;;;;26.05;9.50;;;;;;;7.00;100.00;102401.22;5085605;28;20054;-66
2023/05/17 03:50:35;;;;;;;26.05;9.68;;;;;;;6.99;100.00;102408.22;5084292;28;20033;-67
2023/05/17 03:53:00;;;;;;;30.08;10.35;;;;;;;7.03;100.00;102399.63;5086885;28;20035;-66
2023/05/17 03:55:26;;;;;;;28.00;9.90;;;;;;;7.02;100.00;102402.19;5083551;28;20084;-72
2023/05/17 03:57:51;;;;;;;26.50;9.48;;;;;;;7.01;100.00;102403.03;5086454;28;20471;-68
2023/05/17 04:00:20;;;;;;;26.40;9.95;;;;;;;6.97;100.00;102404.63;5084727;28;20470;-69
2023/05/17 04:02:47;;;;;;;28.25;10.30;;;;;;;6.89;100.00;102409.53;5085610;28;20078;-68
2023/05/17 04:05:12;;;;;;;29.10;10.10;;;;;;;6.84;100.00;102413.69;5085011;28;20107;-68
2023/05/17 04:07:38;;;;;;;27.98;10.57;;;;;;;6.78;100.00;102408.16;5084518;28;20107;-68
2023/05/17 04:10:04;;;;;;;28.33;10.38;;;;;;;6.74;100.00;102417.66;5086231;28;20047;-68
2023/05/17 04:12:29;;;;;;;28.08;10.63;;;;;;;6.72;100.00;102418.41;5083358;28;20392;-69
2023/05/17 04:14:55;;;;;;;27.13;10.23;;;;;;;6.66;100.00;102418.13;5083426;28;20464;-68
2023/05/17 04:17:20;;;;;;;28.55;10.30;;;;;;;6.61;100.00;102418.81;5085945;28;20024;-68
2023/05/17 04:19:46;;;;;;;29.73;10.25;;;;;;;6.58;100.00;102423.94;5084499;28;20030;-68
2023/05/17 04:22:11;;;;;;;27.50;10.35;;;;;;;6.54;100.00;102421.06;5084591;28;20043;-69
2023/05/17 04:24:36;;;;;;;29.73;10.90;;;;;;;6.52;100.00;102417.50;5085396;28;20032;-68
2023/05/17 04:27:03;;;;;;;28.40;10.70;;;;;;;6.55;100.00;102417.63;5083497;28;20024;-68
2023/05/17 04:29:28;;;;;;;29.38;11.32;;;;;;;6.53;100.00;102428.06;5086294;28;20036;-68
2023/05/17 04:31:54;;;;;;;28.85;11.27;;;;;;;6.51;100.00;102427.13;5082867;28;20029;-66
2023/05/17 04:34:21;;;;;;;30.30;10.85;;;;;;;6.53;100.00;102440.31;5085656;28;20024;-67
2023/05/17 04:36:46;;;;;;;28.13;10.65;;;;;;;6.51;100.00;102440.25;5083910;28;20172;-68
2023/05/17 04:39:12;;;;;;;30.40;11.20;;;;;;;6.53;100.00;102438.59;5084297;28;20534;-68
2023/05/17 04:41:37;;;;;;;31.00;11.18;;;;;;;6.53;100.00;102441.22;5085594;28;20028;-68
2023/05/17 04:44:03;;;;;;;30.23;11.85;;;;;;;6.57;100.00;102450.16;5083671;28;20025;-67
2023/05/17 04:46:28;;;;;;;27.30;11.55;;;;;;;6.59;100.00;102454.63;5086762;28;20072;-68
2023/05/17 04:48:55;;;;;;;31.52;11.45;;;;;;;6.65;100.00;102458.38;5083324;28;20047;-68
2023/05/17 04:51:20;;;;;;;29.35;10.95;;;;;;;6.66;100.00;102454.94;5085215;28;20634;-68
2023/05/17 04:53:45;;;;;;;28.55;11.32;;;;;;;6.67;100.00;102459.34;5083719;28;20051;-67
2023/05/17 04:56:11;;;;;;;27.58;11.35;;;;;;;6.69;100.00;102461.22;5065912;28;20029;-68
2023/05/17 04:58:36;;;;;;;29.10;11.40;;;;;;;6.73;100.00;102462.28;5084924;28;20103;-68
2023/05/17 05:01:02;;;;;;;29.83;10.93;;;;;;;6.76;100.00;102468.56;5082767;28;20028;-68
2023/05/17 05:03:27;;;;;;;30.95;11.43;;;;;;;6.80;100.00;102472.19;5085746;28;20073;-68
2023/05/17 05:05:53;;;;;;;28.60;11.38;;;;;;;6.88;100.00;102473.47;5082455;28;20032;-68
2023/05/17 05:08:18;;;;;;;28.60;11.35;;;;;;;6.91;100.00;102476.22;5084541;28;20028;-69
2023/05/17 05:10:44;;;;;;;29.77;11.13;;;;;;;6.97;100.00;102484.41;5083520;28;20119;-68
2023/05/17 05:13:10;;;;;;;29.63;11.05;;;;;;;7.06;100.00;102481.31;5065186;28;20028;-70
2023/05/17 05:15:35;;;;;;;27.58;10.85;;;;;;;7.10;100.00;102484.97;5084926;28;20028;-69
2023/05/17 05:18:00;;;;;;;27.92;11.05;;;;;;;7.13;100.00;102495.59;5081964;28;20055;-66
2023/05/17 05:20:26;;;;;;;28.75;11.10;;;;;;;7.15;100.00;102494.84;5059742;28;20082;-69
2023/05/17 05:22:51;;;;;;;29.45;11.52;;;;;;;7.20;100.00;102504.69;5066929;28;20081;-68
2023/05/17 05:25:17;;;;;;;29.13;11.10;;;;;;;7.24;100.00;102499.63;5048194;28;20028;-72
2023/05/17 05:27:42;;;;;;;28.00;11.45;;;;;;;7.29;100.00;102497.19;5083319;28;20097;-74
2023/05/17 05:30:08;;;;;;;29.98;11.30;;;;;;;7.36;100.00;102501.88;5084376;28;20078;-69
2023/05/17 05:32:33;;;;;;;30.70;11.30;;;;;;;7.45;100.00;102509.28;5082174;28;20027;-68
2023/05/17 05:34:59;;;;;;;26.88;11.63;;;;;;;7.51;100.00;102509.53;5085161;28;20118;-66
2023/05/17 05:37:25;;;;;;;31.52;11.75;;;;;;;7.60;100.00;102515.22;5075783;28;20075;-71
2023/05/17 05:39:50;;;;;;;29.48;11.13;;;;;;;7.75;100.00;102506.19;5076618;28;20118;-70
2023/05/17 05:42:16;;;;;;;28.50;11.27;;;;;;;7.80;100.00;102505.53;5077216;28;20395;-70
2023/05/17 05:44:41;;;;;;;29.02;11.27;;;;;;;7.85;100.00;102513.66;5076635;28;20023;-68
2023/05/17 05:47:06;;;;;;;26.55;11.00;;;;;;;7.92;100.00;102509.50;5078924;28;20048;-70
2023/05/17 05:49:32;;;;;;;30.42;11.63;;;;;;;8.04;100.00;102510.03;5078738;28;20036;-72
2023/05/17 05:51:57;;;;;;;28.15;10.68;;;;;;;8.17;100.00;102509.69;5078820;28;20068;-70
2023/05/17 05:54:22;;;;;;;29.10;9.93;;;;;;;8.41;100.00;102519.41;5080616;28;20111;-72
2023/05/17 05:56:50;;;;;;;26.88;9.40;;;;;;;8.55;100.00;102518.28;5078884;28;20116;-75
2023/05/17 05:59:15;;;;;;;27.30;10.00;;;;;;;8.57;100.00;102520.97;5076988;28;20476;-70
2023/05/17 06:01:40;;;;;;;25.40;9.48;;;;;;;8.57;100.00;102523.59;5075886;28;20047;-71
2023/05/17 06:04:06;;;;;;;25.05;8.90;;;;;;;8.53;100.00;102519.03;5078600;28;20012;-73
2023/05/17 06:06:31;;;;;;;27.25;8.90;;;;;;;8.51;100.00;102531.28;5078968;28;20487;-75
2023/05/17 06:08:56;;;;;;;26.25;8.50;;;;;;;8.51;100.00;102537.44;5079521;28;20028;-72
2023/05/17 06:11:24;;;;;;;26.10;8.20;;;;;;;8.50;100.00;102542.66;5078110;28;20471;-72
2023/05/17 06:13:50;;;;;;;23.00;7.38;;;;;;;8.51;100.00;102544.44;5073174;28;20479;-73
2023/05/17 06:16:15;;;;;;;26.83;8.18;;;;;;;8.52;100.00;102541.88;5078507;28;20043;-71
2023/05/17 06:18:41;;;;;;;25.67;7.40;;;;;;;8.60;100.00;102536.91;5059676;28;20028;-70
2023/05/17 06:21:06;;;;;;;24.23;7.30;;;;;;;8.62;100.00;102543.16;5078312;28;20112;-71
2023/05/17 06:23:31;;;;;;;23.40;6.85;;;;;;;8.61;100.00;102543.97;5077746;28;20059;-75
2023/05/17 06:25:57;;;;;;;24.55;6.85;;;;;;;8.64;100.00;102549.38;5082865;28;20028;-67
2023/05/17 06:28:22;;;;;;;25.35;6.82;;;;;;;8.65;100.00;102545.91;5075505;28;20036;-72
2023/05/17 06:30:47;;;;;;;24.83;6.63;;;;;;;8.70;100.00;102546.97;5075749;28;20032;-70
2023/05/17 06:33:13;;;;;;;22.30;5.97;;;;;;;8.76;100.00;102554.22;5077075;28;20567;-73
2023/05/17 06:35:38;;;;;;;24.88;6.38;;;;;;;8.88;100.00;102549.44;5057792;28;20024;-72
2023/05/17 06:38:04;;;;;;;24.05;6.68;;;;;;;8.99;100.00;102549.84;5079257;28;20028;-69
2023/05/17 06:40:29;;;;;;;24.45;6.45;;;;;;;9.12;100.00;102548.56;5077776;28;20044;-71
2023/05/17 06:42:55;;;;;;;23.27;6.30;;;;;;;9.31;100.00;102544.84;5077903;28;20036;-71
2023/05/17 06:45:20;;;;;;;22.83;4.88;;;;;;;9.46;100.00;102544.50;5077853;28;20035;-70
2023/05/17 06:47:46;;;;;;;20.75;4.40;;;;;;;9.54;100.00;102550.97;5079190;28;20044;-72
2023/05/17 06:50:11;;;;;;;21.35;4.30;;;;;;;9.59;100.00;102552.00;5076136;28;20082;-71
2023/05/17 06:52:37;;;;;;;23.40;4.60;;;;;;;9.67;100.00;102554.03;5075879;28;20036;-71
2023/05/17 06:55:02;;;;;;;22.13;4.40;;;;;;;9.76;100.00;102552.63;5078018;28;20029;-70
2023/05/17 06:57:28;;;;;;;21.75;4.22;;;;;;;9.87;100.00;102547.72;5078790;28;20060;-67
2023/05/17 06:59:53;;;;;;;22.23;4.35;;;;;;;9.93;100.00;102545.28;5079072;28;20028;-75
2023/05/17 07:02:19;;;;;;;19.20;3.85;;;;;;;9.98;100.00;102548.09;5078445;28;20539;-73
2023/05/17 07:04:44;;;;;;;22.73;4.18;;;;;;;10.07;100.00;102553.66;5076489;28;20024;-74
2023/05/17 07:07:10;;;;;;;22.23;3.90;;;;;;;10.17;100.00;102562.81;5058136;28;20048;-71
2023/05/17 07:09:36;;;;;;;20.55;3.90;;;;;;;10.24;100.00;102561.28;5076222;28;20497;-70
2023/05/17 07:12:01;;;;;;;20.70;3.67;;;;;;;10.26;100.00;102556.94;5076106;28;20033;-70
2023/05/17 07:14:27;;;;;;;21.88;3.63;;;;;;;10.23;100.00;102562.13;5081817;28;20500;-68
2023/05/17 07:16:52;;;;;;;21.30;3.92;;;;;;;10.26;100.00;102557.81;5080935;28;20481;-66
2023/05/17 07:19:17;;;;;;;22.08;4.10;;;;;;;10.39;100.00;102559.16;5080618;28;20036;-70
2023/05/17 07:21:43;;;;;;;20.42;3.60;;;;;;;10.57;100.00;102566.78;5080599;28;20016;-70
2023/05/17 07:24:09;;;;;;;22.60;3.80;;;;;;;10.76;100.00;102564.69;5081147;28;20120;-71
2023/05/17 07:26:34;;;;;;;21.67;3.72;;;;;;;10.84;100.00;102568.50;5080804;28;20020;-68
2023/05/17 07:28:59;;;;;;;20.13;4.10;;;;;;;10.94;100.00;102569.69;5078724;28;20074;-69
2023/05/17 07:31:25;;;;;;;19.02;4.22;;;;;;;11.14;100.00;102576.47;5059959;28;20036;-69
2023/05/17 07:33:51;;;;;;;20.33;3.88;;;;;;;11.37;100.00;102575.31;5080689;28;20040;-69
2023/05/17 07:36:16;;;;;;;20.33;3.63;;;;;;;11.54;100.00;102573.16;5079442;28;20383;-69
2023/05/17 07:38:41;;;;;;;20.10;3.70;;;;;;;11.46;100.00;102583.50;5078702;28;20059;-69
2023/05/17 07:41:11;;;;;;;20.30;3.83;;;;;;;11.38;100.00;102580.66;5080094;28;20074;-69
2023/05/17 07:43:36;;;;;;;20.02;3.60;;;;;;;11.28;100.00;102575.97;5075861;28;20030;-67
2023/05/17 07:46:02;;;;;;;22.95;3.70;;;;;;;11.12;100.00;102583.44;5078856;28;20028;-68
2023/05/17 07:48:27;;;;;;;18.55;3.25;;;;;;;10.96;100.00;102591.78;5082265;28;20055;-68
2023/05/17 07:50:53;;;;;;;21.27;3.60;;;;;;;10.88;100.00;102599.50;5083089;28;20035;-68
2023/05/17 07:53:18;;;;;;;20.85;3.60;;;;;;;10.80;100.00;102599.25;5079310;28;20028;-68
2023/05/17 07:55:44;;;;;;;21.98;4.18;;;;;;;10.70;100.00;102602.44;5079627;28;20024;-71
2023/05/17 07:58:10;;;;;;;18.33;3.60;;;;;;;10.64;100.00;102595.22;5079418;28;20021;-67
2023/05/17 08:00:36;;;;;;;20.40;3.72;;;;;;;10.75;100.00;102590.25;5081847;28;20449;-69
2023/05/17 08:03:02;;;;;;;19.80;3.40;;;;;;;10.94;100.00;102593.50;5079154;28;20112;-67
2023/05/17 08:05:27;;;;;;;19.40;3.33;;;;;;;11.23;100.00;102598.78;5078122;28;20538;-71
2023/05/17 08:07:52;;;;;;;19.58;3.25;;;;;;;11.50;100.00;102585.41;5081355;28;20102;-70
2023/05/17 08:10:18;;;;;;;20.13;3.60;;;;;;;11.69;100.00;102594.75;5072074;28;20070;-69
2023/05/17 08:12:43;;;;;;;20.60;3.45;;;;;;;11.86;100.00;102596.13;5073976;28;20028;-69
2023/05/17 08:15:09;;;;;;;19.35;3.30;;;;;;;12.05;97.10;102593.09;5078977;28;20033;-71
2023/05/17 08:17:34;;;;;;;19.05;3.03;;;;;;;12.19;89.20;102597.91;5080691;28;20082;-70
2023/05/17 08:20:00;;;;;;;18.80;3.08;;;;;;;12.40;87.33;102599.28;5081462;28;20025;-70
2023/05/17 08:22:26;;;;;;;17.50;3.20;;;;;;;12.37;89.38;102593.91;5062412;28;20025;-70
2023/05/17 08:24:51;;;;;;;19.98;3.28;;;;;;;12.22;88.74;102602.38;5079352;28;20379;-70
2023/05/17 08:27:17;;;;;;;20.27;3.60;;;;;;;11.96;89.87;102604.38;5081979;28;20035;-72
2023/05/17 08:29:43;;;;;;;18.98;3.20;;;;;;;11.97;86.03;102608.78;5080860;28;20118;-69
2023/05/17 08:32:08;;;;;;;21.05;3.38;;;;;;;11.81;88.65;102600.41;5081071;28;20028;-68
2023/05/17 08:34:34;;;;;;;19.23;3.17;;;;;;;11.87;93.47;102607.63;5057132;28;20025;-69
2023/05/17 08:36:59;;;;;;;17.83;3.22;;;;;;;12.06;97.45;102605.47;5078869;28;20024;-69
2023/05/17 08:39:24;;;;;;;18.40;2.90;;;;;;;12.42;86.45;102599.31;5076719;28;20032;-71
2023/05/17 08:41:50;;;;;;;18.10;3.22;;;;;;;12.71;80.65;102600.03;5080215;28;20104;-69
2023/05/17 08:44:16;;;;;;;18.45;3.08;;;;;;;13.02;76.32;102598.97;5081196;28;20037;-72
2023/05/17 08:46:52;;;;;;;20.02;2.85;;;;;;;13.19;78.22;102606.41;5078183;28;20020;-68
2023/05/17 08:49:21;;;;;;;18.48;3.53;;;;;;;13.01;77.33;102607.78;5079097;28;20079;-71
2023/05/17 08:51:52;;;;;;;19.42;3.22;;;;;;;12.82;77.43;102611.78;5076599;28;20051;-70
2023/05/17 08:54:17;;;;;;;18.60;3.08;;;;;;;12.75;76.83;102612.50;5080889;28;20553;-71
2023/05/17 08:56:43;;;;;;;18.67;3.17;;;;;;;12.90;73.96;102615.53;5079499;28;20033;-70
2023/05/17 08:59:12;;;;;;;18.38;3.20;;;;;;;13.08;71.72;102609.72;5079511;28;20501;-72
2023/05/17 09:01:40;;;;;;;17.42;2.97;;;;;;;13.35;70.80;102612.97;5079670;28;20136;-70
2023/05/17 09:04:08;;;;;;;17.50;3.13;;;;;;;13.30;70.42;102610.19;5078649;28;20023;-72
2023/05/17 09:06:34;;;;;;;15.90;3.15;;;;;;;13.67;72.60;102607.41;5077393;28;20028;-70
2023/05/17 09:09:00;;;;;;;18.23;3.03;;;;;;;13.86;65.95;102604.25;5076920;28;20520;-71
2023/05/17 09:11:32;;;;;;;16.10;2.80;;;;;;;14.07;67.02;102606.38;5074348;28;20383;-69
2023/05/17 09:13:59;;;;;;;15.13;2.85;;;;;;;14.39;67.55;102607.81;5071343;28;20028;-73
2023/05/17 09:16:27;;;;;;;18.60;3.00;;;;;;;14.57;62.28;102610.75;5077903;28;20450;-70
2023/05/17 09:18:54;;;;;;;17.85;3.10;;;;;;;14.70;64.07;102606.56;5072057;28;20024;-71
2023/05/17 09:21:21;;;;;;;14.95;2.70;;;;;;;14.92;59.44;102604.22;5080591;28;20027;-71
2023/05/17 09:23:46;;;;;;;15.93;2.90;;;;;;;15.25;58.42;102608.22;5079379;28;20047;-71
2023/05/17 09:26:12;;;;;;;17.98;2.90;;;;;;;15.60;58.42;102613.09;5079019;28;20028;-71
2023/05/17 09:28:39;;;;;;;19.92;3.22;;;;;;;15.79;56.91;102601.78;5076002;28;20187;-70
2023/05/17 09:31:09;;;;;;;27.02;3.67;;;;;;;15.88;60.23;102590.31;5077258;28;20036;-70
2023/05/17 09:33:42;;;;;;;19.85;3.35;;;;;;;15.93;58.64;102612.59;5077481;28;20029;-70
2023/05/17 09:36:20;;;;;;;18.95;3.10;;;;;;;16.33;58.54;102610.28;5076610;28;20063;-70
2023/05/17 09:38:52;;;;;;;17.67;2.92;;;;;;;16.50;56.13;102614.88;5076629;28;20042;-70
2023/05/17 09:41:18;;;;;;;17.73;3.05;;;;;;;16.89;57.82;102610.69;5076029;28;20145;-70
2023/05/17 09:43:43;;;;;;;18.33;3.20;;;;;;;16.99;51.67;102607.19;5076341;28;20120;-70
2023/05/17 09:46:08;;;;;;;17.20;3.05;;;;;;;17.60;50.42;102601.25;5077546;28;20040;-70
2023/05/17 09:48:37;;;;;;;19.50;3.22;;;;;;;17.81;49.26;102614.63;5074843;28;20044;-71
2023/05/17 09:51:04;;;;;;;17.17;3.10;;;;;;;17.27;48.90;102604.69;5077345;28;20072;-71
2023/05/17 09:53:32;;;;;;;20.08;3.22;;;;;;;16.43;51.67;102603.25;5079857;28;20032;-70
2023/05/17 09:56:01;;;;;;;19.27;3.10;;;;;;;16.88;51.69;102604.47;5083153;28;20056;-71
2023/05/17 09:58:30;;;;;;;19.65;3.17;;;;;;;18.93;46.02;102612.03;5082244;28;20463;-71
2023/05/17 10:01:06;;;;;;;18.60;2.90;;;;;;;21.00;43.43;102615.09;5083360;28;20096;-71
2023/05/17 10:03:34;;;;;;;13.57;2.90;;;;;;;22.25;39.62;102606.22;5078107;28;20387;-69
2023/05/17 10:06:04;;;;;;;17.65;3.13;;;;;;;22.37;38.21;102612.34;5083783;28;20532;-67
2023/05/17 10:08:31;;;;;;;19.33;3.00;;;;;;;22.89;35.70;102614.06;5081299;28;20380;-67
2023/05/17 10:11:17;;;;;;;15.32;2.78;;;;;;;23.89;36.49;102607.50;5084413;28;20424;-67
2023/05/17 10:13:48;;;;;;;17.70;2.70;;;;;;;23.67;34.52;102614.25;5082894;28;20041;-68
2023/05/17 10:16:14;;;;;;;16.93;2.77;;;;;;;23.03;35.46;102615.59;5081903;28;20035;-67
2023/05/17 10:18:40;;;;;;;17.83;2.90;;;;;;;21.40;37.87;102612.81;5082917;28;20387;-68
2023/05/17 10:21:07;;;;;;;13.30;2.70;;;;;;;22.20;36.14;102616.16;5082802;28;20024;-67
2023/05/17 10:23:33;;;;;;;12.45;2.40;;;;;;;23.58;34.63;102613.59;5081892;28;20387;-67
2023/05/17 10:25:59;;;;;;;17.10;2.70;;;;;;;25.05;32.95;102621.59;5083869;28;20024;-67
2023/05/17 10:28:26;;;;;;;17.73;2.90;;;;;;;26.10;31.58;102622.03;5080778;28;20102;-67
2023/05/17 10:30:52;;;;;;;17.50;3.10;;;;;;;26.30;29.40;102612.34;5076898;28;20032;-72
2023/05/17 10:33:20;;;;;;;17.40;2.80;;;;;;;26.02;30.33;102606.97;5083696;28;20039;-71
2023/05/17 10:35:48;;;;;;;21.05;3.03;;;;;;;25.29;31.82;102600.16;5081574;28;20016;-72
2023/05/17 10:38:14;;;;;;;18.52;3.05;;;;;;;24.85;31.91;102605.94;5048059;28;20032;-72
2023/05/17 10:40:42;;;;;;;16.48;2.75;;;;;;;23.17;33.42;102605.47;5082331;28;20021;-72
2023/05/17 10:43:09;;;;;;;13.40;2.78;;;;;;;22.68;33.62;102599.19;5082626;28;20386;-72
2023/05/17 10:45:35;;;;;;;15.68;2.75;;;;;;;24.14;32.52;102599.66;5082590;28;20032;-71
2023/05/17 10:48:04;;;;;;;17.65;2.70;;;;;;;25.38;30.66;102600.81;5081472;28;20072;-71
2023/05/17 10:50:30;;;;;;;16.38;2.90;;;;;;;26.47;29.64;102597.31;5083680;28;20020;-72
2023/05/17 10:52:58;;;;;;;12.48;2.40;;;;;;;27.25;26.92;102613.44;5078990;28;20086;-72
2023/05/17 10:55:35;;;;;;;16.70;2.60;;;;;;;28.03;26.29;102597.72;5075734;28;20024;-69
2023/05/17 10:58:09;;;;;;;14.88;2.58;;;;;;;28.66;26.69;102605.03;5076649;28;20052;-68
2023/05/17 11:00:48;;;;;;;16.80;2.70;;;;;;;27.84;27.20;102597.56;5077147;28;20025;-71
2023/05/17 11:03:21;;;;;;;14.45;2.53;;;;;;;27.29;26.58;102589.78;5079551;28;20035;-72
2023/05/17 11:06:21;;;;;;;15.25;2.63;;;;;;;27.72;27.96;102587.22;5082479;28;20020;-70
2023/05/17 11:09:07;;;;;;;15.52;2.72;;;;;;;28.39;26.04;102586.22;5080055;28;20464;-71
2023/05/17 11:11:33;;;;;;;11.57;2.30;;;;;;;28.48;24.59;102579.50;5070077;28;20041;-73
2023/05/17 11:14:03;;;;;;;12.15;2.30;;;;;;;28.82;24.24;102584.34;5070251;28;20115;-73